Buoy 13570

sailwx.info

Track history (hours):
 
Tides and Currents Weather Stations Pressure Air Temp Water Temp Dewpoint Dewpoint Depression Visibility Wind Speed Wind Dir Waves Ship Positions

Drifting buoy 13570

Last reported at 2014-Nov-23 04:00 UTC. Time now 2014-Nov-23 06:05 UTC.
Position N 35°02' W 031°02'.

Barometer 1022.7 mb
Water temperature 21.3 ° C

Date/timePositionNaut miles runAvg speedWind from/ knotsBaromVisibWave heightAir tempDewpointWater temp
2014-Nov-23 04:00N 35°02' W 031°02'4 2.2 1022.7 21.3
2014-Nov-23 02:00N 34°58' W 031°04'2 0.6 1023.4 21.3
2014-Nov-22 23:00N 34°56' W 031°05'0 0.5 1024.0 21.4
2014-Nov-22 22:00N 34°56' W 031°05'2 1.8 1024.2 21.4
2014-Nov-22 21:00N 34°55' W 031°05'0 0.3 1023.9 21.4
2014-Nov-22 20:00N 34°54' W 031°05'2 2.1 1023.5 21.4
2014-Nov-22 19:00N 34°52' W 031°06'0 0.1 1023.9 21.3
2014-Nov-22 17:00N 34°52' W 031°05'1 1.2 1024.0 21.3
2014-Nov-22 16:00N 34°51' W 031°05'1 0.8 1024.0 21.3
2014-Nov-22 15:00N 34°50' W 031°06'0 0.0 1024.0 21.3
2014-Nov-22 14:00N 34°50' W 031°06'1 1.3 1024.8 21.3
2014-Nov-22 13:00N 34°49' W 031°07'1 1.3 1025.3 21.3
2014-Nov-22 12:00N 34°48' W 031°07'1 1.2 1025.3 21.3
2014-Nov-22 11:00N 34°47' W 031°07'3 3.0 1025.1 21.3
2014-Nov-22 10:00N 34°44' W 031°08'0 0.2 1025.0 21.3
2014-Nov-22 09:00N 34°44' W 031°08'0 0.2 1024.2 21.3
2014-Nov-22 08:00N 34°44' W 031°08'1 0.6 1023.5 21.3
2014-Nov-22 07:00N 34°43' W 031°08'1 0.6 1023.0 21.3
2014-Nov-22 06:00N 34°43' W 031°08'1 1.3 1023.5 21.3
2014-Nov-22 05:00N 34°41' W 031°07'0 0.0 1023.1 21.3
2014-Nov-22 04:00N 34°41' W 031°07'4 2.0 1023.1 21.3
2014-Nov-22 02:00N 34°38' W 031°10'4 2.0 1023.2 21.3
2014-Nov-22 00:00N 34°34' W 031°11'0 0.0 1023.5 21.3
2014-Nov-21 21:00N 34°34' W 031°11'1 0.6 1022.7 21.3
2014-Nov-21 20:00N 34°34' W 031°11'1 1.3 1022.2 21.3
2014-Nov-21 19:00N 34°32' W 031°11'1 0.6 1021.6 21.3
2014-Nov-21 18:00N 34°32' W 031°11'0 0.0 1021.2 21.3
2014-Nov-21 17:00N 34°32' W 031°11'0 0.0 1021.0 21.3
2014-Nov-21 16:00N 34°32' W 031°11'3 1.3 1020.3 21.4
2014-Nov-21 14:00N 34°29' W 031°13'1 0.3 1021.2 21.3
2014-Nov-21 12:00N 34°29' W 031°13'0 0.0 1022.2 21.3
2014-Nov-21 11:00N 34°29' W 031°13'0 0.0 1020.9 21.3
2014-Nov-21 10:00N 34°29' W 031°13'1 0.6 1020.9 21.3
2014-Nov-21 08:00N 34°28' W 031°13'3 1.3 1020.0 21.3
2014-Nov-21 06:00N 34°25' W 031°14'0 0.0 1019.3 21.4
2014-Nov-21 05:00N 34°25' W 031°14'0 0.0 1019.3 21.4
2014-Nov-21 04:00N 34°25' W 031°14'0 0.5 1018.8 21.4
2014-Nov-21 03:00N 34°25' W 031°15'2 2.3 1018.4 21.4
2014-Nov-21 02:00N 34°23' W 031°17'0 0.0 1018.8 21.4
2014-Nov-21 00:00N 34°23' W 031°17'0 0.0 1018.9 21.4
2014-Nov-20 23:00N 34°23' W 031°17'1 0.6 1018.8 21.4
2014-Nov-20 22:00N 34°23' W 031°17'2 1.8 1018.6 21.4
2014-Nov-20 21:00N 34°21' W 031°16'0 0.3 1018.4 21.4
2014-Nov-20 20:00N 34°21' W 031°16'0 0.0 1017.9 21.4
2014-Nov-20 19:00N 34°21' W 031°16'0 0.5 1017.1 21.5
2014-Nov-20 18:00N 34°21' W 031°16'0 0.3 1016.5 21.5
2014-Nov-20 17:00N 34°21' W 031°16'0 0.3 1016.5 21.5
2014-Nov-20 16:00N 34°21' W 031°16'1 0.5 1016.2 21.5
2014-Nov-20 14:00N 34°21' W 031°15'0 0.2 1016.7 21.5
2014-Nov-20 12:00N 34°21' W 031°16'2 1.6 1017.6 21.5
2014-Nov-20 11:00N 34°22' W 031°17'0 0.0 1017.5 21.5
2014-Nov-20 09:00N 34°22' W 031°17'1 0.8 1016.5 21.5
2014-Nov-20 08:00N 34°21' W 031°18'0 0.0 1016.3 21.5
2014-Nov-20 07:00N 34°21' W 031°18'1 0.8 1016.3 21.5
2014-Nov-20 06:00N 34°20' W 031°19'0 0.0 1016.2 21.5
2014-Nov-20 05:00N 34°20' W 031°19'1 0.8 1016.1 21.5
2014-Nov-20 04:00N 34°20' W 031°19'0 0.0 1016.6 21.5
2014-Nov-20 03:00N 34°20' W 031°19'2 0.5 1016.8 21.5
2014-Nov-19 23:00N 34°18' W 031°20'0 0.0 1018.1 21.5
2014-Nov-19 21:00N 34°18' W 031°20'2 1.6 1017.8 21.5
2014-Nov-19 20:00N 34°17' W 031°19'0 0.0 1017.7 21.5
2014-Nov-19 19:00N 34°17' W 031°19'1 0.8 1017.5 21.5
2014-Nov-19 18:00N 34°17' W 031°19'0 0.5 1017.2 21.5
2014-Nov-19 17:00N 34°17' W 031°19'0 0.0 1017.0 21.5
2014-Nov-19 16:00N 34°17' W 031°19'0 0.0 1016.9 21.5
2014-Nov-19 14:00N 34°17' W 031°19'1 0.3 1017.8 21.5
2014-Nov-19 12:00N 34°17' W 031°19'1 1.5 1018.5 21.5
2014-Nov-19 11:00N 34°18' W 031°20'0 0.1 1018.2 21.5
2014-Nov-19 09:00N 34°18' W 031°20'1 0.5 1017.1 21.6
2014-Nov-19 07:00N 34°17' W 031°20'1 0.6 1018.2 21.6
2014-Nov-19 06:00N 34°17' W 031°20'0 0.0 1018.7 21.6
2014-Nov-19 05:00N 34°17' W 031°20'1 1.3 1019.5 21.6
2014-Nov-19 04:00N 34°16' W 031°20'1 0.2 1020.4 21.6
2014-Nov-18 23:00N 34°16' W 031°21'2 1.2 1022.4 21.7
2014-Nov-18 21:00N 34°16' W 031°18'0 0.2 1022.0 21.8
2014-Nov-18 20:00N 34°16' W 031°18'1 0.6 1021.3 21.8
2014-Nov-18 19:00N 34°15' W 031°17'2 1.6 1021.4 21.8
2014-Nov-18 18:00N 34°15' W 031°19'1 1.3 1021.1 21.9
2014-Nov-18 17:00N 34°15' W 031°18'0 0.4 1020.8 21.9
2014-Nov-18 16:00N 34°15' W 031°17'1 1.0 1020.4 21.9
2014-Nov-18 15:00N 34°15' W 031°16'0 0.0 1020.9 21.9
2014-Nov-18 14:00N 34°15' W 031°16'1 0.4 1021.6 21.9
2014-Nov-18 11:00N 34°16' W 031°15'0 0.0 1022.6 21.9
2014-Nov-18 10:00N 34°16' W 031°15'0 0.2 1022.1 21.9
2014-Nov-18 07:00N 34°16' W 031°16'0 0.0 1021.1 22.0
2014-Nov-18 06:00N 34°16' W 031°16'1 0.8 1020.8 22.0
2014-Nov-18 05:00N 34°15' W 031°15'1 0.6 1020.6 22.0
2014-Nov-18 04:00N 34°14' W 031°15'1 0.8 1021.0 22.0
2014-Nov-18 03:00N 34°14' W 031°14'2 0.4 1021.3 22.0
2014-Nov-17 23:00N 34°13' W 031°13'2 2.1 1021.5 22.1
2014-Nov-17 22:00N 34°12' W 031°11'0 0.3 1021.4 22.1
2014-Nov-17 21:00N 34°12' W 031°11'0 0.3 1020.5 22.1
2014-Nov-17 20:00N 34°12' W 031°11'0 0.5 1019.7 22.1
2014-Nov-17 19:00N 34°12' W 031°10'0 0.0 1018.9 22.1
2014-Nov-17 18:00N 34°12' W 031°10'1 1.5 1018.1 22.1
2014-Nov-17 17:00N 34°12' W 031°08'1 0.8 1017.4 22.1
2014-Nov-17 16:00N 34°11' W 031°09'0 0.0 1017.1 22.1
2014-Nov-17 15:00N 34°11' W 031°09'2 1.7 1017.0 22.2
2014-Nov-17 14:00N 34°12' W 031°07'0 0.0 1017.1 22.2
2014-Nov-17 13:00N 34°12' W 031°07'1 0.5 1016.9 22.1
2014-Nov-17 11:00N 34°12' W 031°06'1 0.7 1015.9 22.1
2014-Nov-17 10:00N 34°13' W 031°05'0 0.0 1014.4 22.1
2014-Nov-17 08:00N 34°13' W 031°05'0 0.5 1013.0 22.1
2014-Nov-17 07:00N 34°13' W 031°05'0 0.5 1012.8 22.1
2014-Nov-17 06:00N 34°13' W 031°05'1 1.0 1013.0 22.1
2014-Nov-17 05:00N 34°13' W 031°04'0 0.2 1013.2 22.1
2014-Nov-17 03:00N 34°13' W 031°05'1 0.2 1014.5 22.1
2014-Nov-17 00:00N 34°12' W 031°05'0 0.4 1015.7 22.1
2014-Nov-16 23:00N 34°12' W 031°04'1 1.2 1015.8 22.1
2014-Nov-16 22:00N 34°11' W 031°03'0 0.1 1015.8 22.0
2014-Nov-16 21:00N 34°11' W 031°03'0 0.1 1015.7 22.0
2014-Nov-16 20:00N 34°11' W 031°03'0 0.0 1015.7 22.0
2014-Nov-16 19:00N 34°11' W 031°03'1 1.2 1015.7 22.1
2014-Nov-16 18:00N 34°11' W 031°02'1 1.2 1015.5 22.1
2014-Nov-16 17:00N 34°11' W 031°03'1 1.2 1015.7 22.1
2014-Nov-16 16:00N 34°11' W 031°02'0 0.0 1015.8 22.1
2014-Nov-16 15:00N 34°11' W 031°02'1 0.5 1016.3 22.1
2014-Nov-16 13:00N 34°11' W 031°01'1 0.6 1017.8 22.0
2014-Nov-16 12:00N 34°11' W 031°01'0 0.5 1018.1 22.0
2014-Nov-16 11:00N 34°11' W 031°01'0 0.0 1018.3 22.0
2014-Nov-16 10:00N 34°11' W 031°01'0 0.0 1017.9 22.0
2014-Nov-16 08:00N 34°11' W 031°01'0 0.5 1016.9 22.0
2014-Nov-16 07:00N 34°11' W 031°01'1 0.4 1016.5 22.0
2014-Nov-16 05:00N 34°11' W 031°01'0 0.0 1016.6 22.0
2014-Nov-16 04:00N 34°11' W 031°01'2 1.8 1016.9 22.0
2014-Nov-16 03:00N 34°09' W 031°01'0 0.0 1017.0 22.0
2014-Nov-15 23:00N 34°09' W 031°01'0 0.0 1018.3 22.0
2014-Nov-15 22:00N 34°09' W 031°01'1 0.8 1018.4 22.0
2014-Nov-15 21:00N 34°10' W 031°01'2 1.6 1018.3 22.0
2014-Nov-15 20:00N 34°08' W 030°59'1 0.6 1018.3 22.0
2014-Nov-15 19:00N 34°08' W 030°59'0 0.5 1018.0 22.0
2014-Nov-15 18:00N 34°08' W 031°00'2 1.6 1017.7 22.0
2014-Nov-15 17:00N 34°07' W 030°59'0 0.0 1017.7 22.1
2014-Nov-15 15:00N 34°07' W 030°59'0 0.2 1018.3 22.0
2014-Nov-15 13:00N 34°07' W 030°58'1 0.6 1019.9 22.0
2014-Nov-15 12:00N 34°07' W 030°58'0 0.0 1020.4 22.0
2014-Nov-15 11:00N 34°07' W 030°58'0 0.0 1020.5 22.0
2014-Nov-15 10:00N 34°07' W 030°58'1 1.3 1020.0 21.9
2014-Nov-15 09:00N 34°06' W 030°58'0 0.1 1020.1 22.0
2014-Nov-15 08:00N 34°06' W 030°58'1 1.1 1019.4 21.9
2014-Nov-15 07:00N 34°05' W 030°58'1 1.2 1019.1 21.9
2014-Nov-15 06:00N 34°04' W 030°58'0 0.0 1019.3 21.9
2014-Nov-15 05:00N 34°04' W 030°58'0 0.0 1019.2 21.9
2014-Nov-15 04:00N 34°04' W 030°58'2 2.3 1019.7 21.9
2014-Nov-15 03:00N 34°02' W 030°55'0 0.0 1020.0 22.0
2014-Nov-15 02:00N 34°02' W 030°55'2 0.6 1020.5 22.0
2014-Nov-14 23:00N 34°01' W 030°55'0 0.1 1020.6 22.0
2014-Nov-14 22:00N 34°01' W 030°55'2 0.8 1020.4 22.0
2014-Nov-14 19:00N 34°00' W 030°52'1 0.6 1019.2 22.0
2014-Nov-14 17:00N 33°59' W 030°52'1 0.7 1018.6 22.0
2014-Nov-14 15:00N 33°59' W 030°50'0 0.3 1018.7 22.0
2014-Nov-14 14:00N 33°59' W 030°50'1 0.4 1019.1 22.0
2014-Nov-14 12:00N 33°58' W 030°50'1 0.6 1019.9 21.9
2014-Nov-14 11:00N 33°58' W 030°50'0 0.0 1020.0 21.9
2014-Nov-14 10:00N 33°58' W 030°50'2 1.8 1019.9 21.9
2014-Nov-14 09:00N 33°56' W 030°48'1 0.5 1019.5 21.9
2014-Nov-14 08:00N 33°56' W 030°48'1 1.2 1019.0 21.9
2014-Nov-14 07:00N 33°55' W 030°47'0 0.5 1018.9 21.9
2014-Nov-14 06:00N 33°55' W 030°47'1 0.8 1018.6 21.9
2014-Nov-14 05:00N 33°55' W 030°47'0 0.0 1019.0 21.9
2014-Nov-14 04:00N 33°55' W 030°47'4 0.8 1019.1 21.9
2014-Nov-13 23:00N 33°52' W 030°43'1 0.8 1019.6 21.9
2014-Nov-13 22:00N 33°52' W 030°42'2 1.9 1019.3 22.0
2014-Nov-13 21:00N 33°50' W 030°40'0 0.0 1018.7 22.0
2014-Nov-13 20:00N 33°50' W 030°40'1 0.8 1018.3 22.0
2014-Nov-13 19:00N 33°50' W 030°40'0 0.0 1017.9 22.0
2014-Nov-13 18:00N 33°50' W 030°40'3 2.6 1017.6 22.0
2014-Nov-13 17:00N 33°50' W 030°37'0 0.0 1017.3 22.0
2014-Nov-13 16:00N 33°50' W 030°37'1 0.6 1017.3 22.0
2014-Nov-13 15:00N 33°50' W 030°37'0 0.0 1017.7 22.0
2014-Nov-13 14:00N 33°50' W 030°37'1 1.5 1018.4 22.0
2014-Nov-13 13:00N 33°50' W 030°35'1 0.8 1018.7 22.0
2014-Nov-13 12:00N 33°50' W 030°34'1 0.3 1018.8 22.0
2014-Nov-13 10:00N 33°50' W 030°34'0 0.2 1018.3 21.9
2014-Nov-13 08:00N 33°50' W 030°34'1 0.6 1017.2 22.0
2014-Nov-13 07:00N 33°49' W 030°34'0 0.0 1016.9 22.0
2014-Nov-13 06:00N 33°49' W 030°34'1 0.8 1016.8 22.0
2014-Nov-13 05:00N 33°49' W 030°33'0 0.0 1016.5 22.0
2014-Nov-13 04:00N 33°49' W 030°33'   1016.5 22.0
Track history (hours):
 
Tides and Currents Weather Stations Pressure Air Temp Water Temp Dewpoint Dewpoint Depression Visibility Wind Speed Wind Dir Waves Ship Positions

Drifting buoy 13570

Last reported at 2014-Nov-23 04:00 UTC. Time now 2014-Nov-23 06:05 UTC.
Position N 35°02' W 031°02'.

Barometer 1022.7 mb
Water temperature 21.3 ° C

Date/timePositionNaut miles runAvg speedWind from/ knotsBaromVisibWave heightAir tempDewpointWater temp
2014-Nov-23 04:00N 35°02' W 031°02'4 2.2 1022.7 21.3
2014-Nov-23 02:00N 34°58' W 031°04'2 0.6 1023.4 21.3
2014-Nov-22 23:00N 34°56' W 031°05'0 0.5 1024.0 21.4
2014-Nov-22 22:00N 34°56' W 031°05'2 1.8 1024.2 21.4
2014-Nov-22 21:00N 34°55' W 031°05'0 0.3 1023.9 21.4
2014-Nov-22 20:00N 34°54' W 031°05'2 2.1 1023.5 21.4
2014-Nov-22 19:00N 34°52' W 031°06'0 0.1 1023.9 21.3
2014-Nov-22 17:00N 34°52' W 031°05'1 1.2 1024.0 21.3
2014-Nov-22 16:00N 34°51' W 031°05'1 0.8 1024.0 21.3
2014-Nov-22 15:00N 34°50' W 031°06'0 0.0 1024.0 21.3
2014-Nov-22 14:00N 34°50' W 031°06'1 1.3 1024.8 21.3
2014-Nov-22 13:00N 34°49' W 031°07'1 1.3 1025.3 21.3
2014-Nov-22 12:00N 34°48' W 031°07'1 1.2 1025.3 21.3
2014-Nov-22 11:00N 34°47' W 031°07'3 3.0 1025.1 21.3
2014-Nov-22 10:00N 34°44' W 031°08'0 0.2 1025.0 21.3
2014-Nov-22 09:00N 34°44' W 031°08'0 0.2 1024.2 21.3
2014-Nov-22 08:00N 34°44' W 031°08'1 0.6 1023.5 21.3
2014-Nov-22 07:00N 34°43' W 031°08'1 0.6 1023.0 21.3
2014-Nov-22 06:00N 34°43' W 031°08'1 1.3 1023.5 21.3
2014-Nov-22 05:00N 34°41' W 031°07'0 0.0 1023.1 21.3
2014-Nov-22 04:00N 34°41' W 031°07'4 2.0 1023.1 21.3
2014-Nov-22 02:00N 34°38' W 031°10'4 2.0 1023.2 21.3
2014-Nov-22 00:00N 34°34' W 031°11'0 0.0 1023.5 21.3
2014-Nov-21 21:00N 34°34' W 031°11'1 0.6 1022.7 21.3
2014-Nov-21 20:00N 34°34' W 031°11'1 1.3 1022.2 21.3
2014-Nov-21 19:00N 34°32' W 031°11'1 0.6 1021.6 21.3
2014-Nov-21 18:00N 34°32' W 031°11'0 0.0 1021.2 21.3
2014-Nov-21 17:00N 34°32' W 031°11'0 0.0 1021.0 21.3
2014-Nov-21 16:00N 34°32' W 031°11'3 1.3 1020.3 21.4
2014-Nov-21 14:00N 34°29' W 031°13'1 0.3 1021.2 21.3
2014-Nov-21 12:00N 34°29' W 031°13'0 0.0 1022.2 21.3
2014-Nov-21 11:00N 34°29' W 031°13'0 0.0 1020.9 21.3
2014-Nov-21 10:00N 34°29' W 031°13'1 0.6 1020.9 21.3
2014-Nov-21 08:00N 34°28' W 031°13'3 1.3 1020.0 21.3
2014-Nov-21 06:00N 34°25' W 031°14'0 0.0 1019.3 21.4
2014-Nov-21 05:00N 34°25' W 031°14'0 0.0 1019.3 21.4
2014-Nov-21 04:00N 34°25' W 031°14'0 0.5 1018.8 21.4
2014-Nov-21 03:00N 34°25' W 031°15'2 2.3 1018.4 21.4
2014-Nov-21 02:00N 34°23' W 031°17'0 0.0 1018.8 21.4
2014-Nov-21 00:00N 34°23' W 031°17'0 0.0 1018.9 21.4
2014-Nov-20 23:00N 34°23' W 031°17'1 0.6 1018.8 21.4
2014-Nov-20 22:00N 34°23' W 031°17'2 1.8 1018.6 21.4
2014-Nov-20 21:00N 34°21' W 031°16'0 0.3 1018.4 21.4
2014-Nov-20 20:00N 34°21' W 031°16'0 0.0 1017.9 21.4
2014-Nov-20 19:00N 34°21' W 031°16'0 0.5 1017.1 21.5
2014-Nov-20 18:00N 34°21' W 031°16'0 0.3 1016.5 21.5
2014-Nov-20 17:00N 34°21' W 031°16'0 0.3 1016.5 21.5
2014-Nov-20 16:00N 34°21' W 031°16'1 0.5 1016.2 21.5
2014-Nov-20 14:00N 34°21' W 031°15'0 0.2 1016.7 21.5
2014-Nov-20 12:00N 34°21' W 031°16'2 1.6 1017.6 21.5
2014-Nov-20 11:00N 34°22' W 031°17'0 0.0 1017.5 21.5
2014-Nov-20 09:00N 34°22' W 031°17'1 0.8 1016.5 21.5
2014-Nov-20 08:00N 34°21' W 031°18'0 0.0 1016.3 21.5
2014-Nov-20 07:00N 34°21' W 031°18'1 0.8 1016.3 21.5
2014-Nov-20 06:00N 34°20' W 031°19'0 0.0 1016.2 21.5
2014-Nov-20 05:00N 34°20' W 031°19'1 0.8 1016.1 21.5
2014-Nov-20 04:00N 34°20' W 031°19'0 0.0 1016.6 21.5
2014-Nov-20 03:00N 34°20' W 031°19'2 0.5 1016.8 21.5
2014-Nov-19 23:00N 34°18' W 031°20'0 0.0 1018.1 21.5
2014-Nov-19 21:00N 34°18' W 031°20'2 1.6 1017.8 21.5
2014-Nov-19 20:00N 34°17' W 031°19'0 0.0 1017.7 21.5
2014-Nov-19 19:00N 34°17' W 031°19'1 0.8 1017.5 21.5
2014-Nov-19 18:00N 34°17' W 031°19'0 0.5 1017.2 21.5
2014-Nov-19 17:00N 34°17' W 031°19'0 0.0 1017.0 21.5
2014-Nov-19 16:00N 34°17' W 031°19'0 0.0 1016.9 21.5
2014-Nov-19 14:00N 34°17' W 031°19'1 0.3 1017.8 21.5
2014-Nov-19 12:00N 34°17' W 031°19'1 1.5 1018.5 21.5
2014-Nov-19 11:00N 34°18' W 031°20'0 0.1 1018.2 21.5
2014-Nov-19 09:00N 34°18' W 031°20'1 0.5 1017.1 21.6
2014-Nov-19 07:00N 34°17' W 031°20'1 0.6 1018.2 21.6
2014-Nov-19 06:00N 34°17' W 031°20'0 0.0 1018.7 21.6
2014-Nov-19 05:00N 34°17' W 031°20'1 1.3 1019.5 21.6
2014-Nov-19 04:00N 34°16' W 031°20'1 0.2 1020.4 21.6
2014-Nov-18 23:00N 34°16' W 031°21'2 1.2 1022.4 21.7
2014-Nov-18 21:00N 34°16' W 031°18'0 0.2 1022.0 21.8
2014-Nov-18 20:00N 34°16' W 031°18'1 0.6 1021.3 21.8
2014-Nov-18 19:00N 34°15' W 031°17'2 1.6 1021.4 21.8
2014-Nov-18 18:00N 34°15' W 031°19'1 1.3 1021.1 21.9
2014-Nov-18 17:00N 34°15' W 031°18'0 0.4 1020.8 21.9
2014-Nov-18 16:00N 34°15' W 031°17'1 1.0 1020.4 21.9
2014-Nov-18 15:00N 34°15' W 031°16'0 0.0 1020.9 21.9
2014-Nov-18 14:00N 34°15' W 031°16'1 0.4 1021.6 21.9
2014-Nov-18 11:00N 34°16' W 031°15'0 0.0 1022.6 21.9
2014-Nov-18 10:00N 34°16' W 031°15'0 0.2 1022.1 21.9
2014-Nov-18 07:00N 34°16' W 031°16'0 0.0 1021.1 22.0
2014-Nov-18 06:00N 34°16' W 031°16'1 0.8 1020.8 22.0
2014-Nov-18 05:00N 34°15' W 031°15'1 0.6 1020.6 22.0
2014-Nov-18 04:00N 34°14' W 031°15'1 0.8 1021.0 22.0
2014-Nov-18 03:00N 34°14' W 031°14'2 0.4 1021.3 22.0
2014-Nov-17 23:00N 34°13' W 031°13'2 2.1 1021.5 22.1
2014-Nov-17 22:00N 34°12' W 031°11'0 0.3 1021.4 22.1
2014-Nov-17 21:00N 34°12' W 031°11'0 0.3 1020.5 22.1
2014-Nov-17 20:00N 34°12' W 031°11'0 0.5 1019.7 22.1
2014-Nov-17 19:00N 34°12' W 031°10'0 0.0 1018.9 22.1
2014-Nov-17 18:00N 34°12' W 031°10'1 1.5 1018.1 22.1
2014-Nov-17 17:00N 34°12' W 031°08'1 0.8 1017.4 22.1
2014-Nov-17 16:00N 34°11' W 031°09'0 0.0 1017.1 22.1
2014-Nov-17 15:00N 34°11' W 031°09'2 1.7 1017.0 22.2
2014-Nov-17 14:00N 34°12' W 031°07'0 0.0 1017.1 22.2
2014-Nov-17 13:00N 34°12' W 031°07'1 0.5 1016.9 22.1
2014-Nov-17 11:00N 34°12' W 031°06'1 0.7 1015.9 22.1
2014-Nov-17 10:00N 34°13' W 031°05'0 0.0 1014.4 22.1
2014-Nov-17 08:00N 34°13' W 031°05'0 0.5 1013.0 22.1
2014-Nov-17 07:00N 34°13' W 031°05'0 0.5 1012.8 22.1
2014-Nov-17 06:00N 34°13' W 031°05'1 1.0 1013.0 22.1
2014-Nov-17 05:00N 34°13' W 031°04'0 0.2 1013.2 22.1
2014-Nov-17 03:00N 34°13' W 031°05'1 0.2 1014.5 22.1
2014-Nov-17 00:00N 34°12' W 031°05'0 0.4 1015.7 22.1
2014-Nov-16 23:00N 34°12' W 031°04'1 1.2 1015.8 22.1
2014-Nov-16 22:00N 34°11' W 031°03'0 0.1 1015.8 22.0
2014-Nov-16 21:00N 34°11' W 031°03'0 0.1 1015.7 22.0
2014-Nov-16 20:00N 34°11' W 031°03'0 0.0 1015.7 22.0
2014-Nov-16 19:00N 34°11' W 031°03'1 1.2 1015.7 22.1
2014-Nov-16 18:00N 34°11' W 031°02'1 1.2 1015.5 22.1
2014-Nov-16 17:00N 34°11' W 031°03'1 1.2 1015.7 22.1
2014-Nov-16 16:00N 34°11' W 031°02'0 0.0 1015.8 22.1
2014-Nov-16 15:00N 34°11' W 031°02'1 0.5 1016.3 22.1
2014-Nov-16 13:00N 34°11' W 031°01'1 0.6 1017.8 22.0
2014-Nov-16 12:00N 34°11' W 031°01'0 0.5 1018.1 22.0
2014-Nov-16 11:00N 34°11' W 031°01'0 0.0 1018.3 22.0
2014-Nov-16 10:00N 34°11' W 031°01'0 0.0 1017.9 22.0
2014-Nov-16 08:00N 34°11' W 031°01'0 0.5 1016.9 22.0
2014-Nov-16 07:00N 34°11' W 031°01'1 0.4 1016.5 22.0
2014-Nov-16 05:00N 34°11' W 031°01'0 0.0 1016.6 22.0
2014-Nov-16 04:00N 34°11' W 031°01'2 1.8 1016.9 22.0
2014-Nov-16 03:00N 34°09' W 031°01'0 0.0 1017.0 22.0
2014-Nov-15 23:00N 34°09' W 031°01'0 0.0 1018.3 22.0
2014-Nov-15 22:00N 34°09' W 031°01'1 0.8 1018.4 22.0
2014-Nov-15 21:00N 34°10' W 031°01'2 1.6 1018.3 22.0
2014-Nov-15 20:00N 34°08' W 030°59'1 0.6 1018.3 22.0
2014-Nov-15 19:00N 34°08' W 030°59'0 0.5 1018.0 22.0
2014-Nov-15 18:00N 34°08' W 031°00'2 1.6 1017.7 22.0
2014-Nov-15 17:00N 34°07' W 030°59'0 0.0 1017.7 22.1
2014-Nov-15 15:00N 34°07' W 030°59'0 0.2 1018.3 22.0
2014-Nov-15 13:00N 34°07' W 030°58'1 0.6 1019.9 22.0
2014-Nov-15 12:00N 34°07' W 030°58'0 0.0 1020.4 22.0
2014-Nov-15 11:00N 34°07' W 030°58'0 0.0 1020.5 22.0
2014-Nov-15 10:00N 34°07' W 030°58'1 1.3 1020.0 21.9
2014-Nov-15 09:00N 34°06' W 030°58'0 0.1 1020.1 22.0
2014-Nov-15 08:00N 34°06' W 030°58'1 1.1 1019.4 21.9
2014-Nov-15 07:00N 34°05' W 030°58'1 1.2 1019.1 21.9
2014-Nov-15 06:00N 34°04' W 030°58'0 0.0 1019.3 21.9
2014-Nov-15 05:00N 34°04' W 030°58'0 0.0 1019.2 21.9
2014-Nov-15 04:00N 34°04' W 030°58'2 2.3 1019.7 21.9
2014-Nov-15 03:00N 34°02' W 030°55'0 0.0 1020.0 22.0
2014-Nov-15 02:00N 34°02' W 030°55'2 0.6 1020.5 22.0
2014-Nov-14 23:00N 34°01' W 030°55'0 0.1 1020.6 22.0
2014-Nov-14 22:00N 34°01' W 030°55'2 0.8 1020.4 22.0
2014-Nov-14 19:00N 34°00' W 030°52'1 0.6 1019.2 22.0
2014-Nov-14 17:00N 33°59' W 030°52'1 0.7 1018.6 22.0
2014-Nov-14 15:00N 33°59' W 030°50'0 0.3 1018.7 22.0
2014-Nov-14 14:00N 33°59' W 030°50'1 0.4 1019.1 22.0
2014-Nov-14 12:00N 33°58' W 030°50'1 0.6 1019.9 21.9
2014-Nov-14 11:00N 33°58' W 030°50'0 0.0 1020.0 21.9
2014-Nov-14 10:00N 33°58' W 030°50'2 1.8 1019.9 21.9
2014-Nov-14 09:00N 33°56' W 030°48'1 0.5 1019.5 21.9
2014-Nov-14 08:00N 33°56' W 030°48'1 1.2 1019.0 21.9
2014-Nov-14 07:00N 33°55' W 030°47'0 0.5 1018.9 21.9
2014-Nov-14 06:00N 33°55' W 030°47'1 0.8 1018.6 21.9
2014-Nov-14 05:00N 33°55' W 030°47'0 0.0 1019.0 21.9
2014-Nov-14 04:00N 33°55' W 030°47'4 0.8 1019.1 21.9
2014-Nov-13 23:00N 33°52' W 030°43'1 0.8 1019.6 21.9
2014-Nov-13 22:00N 33°52' W 030°42'2 1.9 1019.3 22.0
2014-Nov-13 21:00N 33°50' W 030°40'0 0.0 1018.7 22.0
2014-Nov-13 20:00N 33°50' W 030°40'1 0.8 1018.3 22.0
2014-Nov-13 19:00N 33°50' W 030°40'0 0.0 1017.9 22.0
2014-Nov-13 18:00N 33°50' W 030°40'3 2.6 1017.6 22.0
2014-Nov-13 17:00N 33°50' W 030°37'0 0.0 1017.3 22.0
2014-Nov-13 16:00N 33°50' W 030°37'1 0.6 1017.3 22.0
2014-Nov-13 15:00N 33°50' W 030°37'0 0.0 1017.7 22.0
2014-Nov-13 14:00N 33°50' W 030°37'1 1.5 1018.4 22.0
2014-Nov-13 13:00N 33°50' W 030°35'1 0.8 1018.7 22.0
2014-Nov-13 12:00N 33°50' W 030°34'1 0.3 1018.8 22.0
2014-Nov-13 10:00N 33°50' W 030°34'0 0.2 1018.3 21.9
2014-Nov-13 08:00N 33°50' W 030°34'1 0.6 1017.2 22.0
2014-Nov-13 07:00N 33°49' W 030°34'0 0.0 1016.9 22.0
2014-Nov-13 06:00N 33°49' W 030°34'1 0.8 1016.8 22.0
2014-Nov-13 05:00N 33°49' W 030°33'0 0.0 1016.5 22.0
2014-Nov-13 04:00N 33°49' W 030°33'   1016.5 22.0

Dump ship's entire track history